createdAt,value
2022-10-15T00:01:22.480Z,11.60
2022-10-15T00:03:49.538Z,12.30
2022-10-15T00:06:19.691Z,12.90
2022-10-15T00:08:48.086Z,17.90
2022-10-15T00:11:18.977Z,16.40
2022-10-15T00:13:46.143Z,16.40
2022-10-15T00:16:19.673Z,18.60
2022-10-15T00:18:48.308Z,18.10
2022-10-15T00:21:18.217Z,19.80
2022-10-15T00:23:46.152Z,19.90
2022-10-15T00:26:16.505Z,21.70
2022-10-15T00:28:44.061Z,15.40
2022-10-15T00:31:14.624Z,16.30
2022-10-15T00:33:42.211Z,18.20
2022-10-15T00:36:20.078Z,19.10
2022-10-15T00:38:48.276Z,16.70
2022-10-15T00:41:19.422Z,17.80
2022-10-15T00:43:54.104Z,10.20
2022-10-15T00:46:27.715Z,15.90
2022-10-15T00:49:20.972Z,18.00
2022-10-15T00:52:10.893Z,18.10
2022-10-15T00:54:42.490Z,19.20
2022-10-15T00:57:11.250Z,16.60
2022-10-15T00:59:47.816Z,18.90
2022-10-15T01:02:18.251Z,16.60
2022-10-15T01:04:46.281Z,19.30
2022-10-15T01:07:13.387Z,20.30
2022-10-15T01:09:43.060Z,19.40
2022-10-15T01:12:33.338Z,18.90
2022-10-15T01:15:14.576Z,16.90
2022-10-15T01:18:10.129Z,17.90
2022-10-15T01:20:49.365Z,17.50
2022-10-15T01:23:31.563Z,19.50
2022-10-15T01:26:14.576Z,19.10
2022-10-15T01:28:54.181Z,18.60
2022-10-15T01:32:03.240Z,7.30
2022-10-15T01:34:45.217Z,23.70
2022-10-15T01:37:21.853Z,14.30
2022-10-15T01:39:57.778Z,16.20
2022-10-15T01:42:30.516Z,20.00
2022-10-15T01:45:02.961Z,18.50
2022-10-15T01:48:11.461Z,20.70
2022-10-15T01:51:01.763Z,19.50
2022-10-15T01:53:29.920Z,17.70
2022-10-15T01:56:20.392Z,17.60
2022-10-15T01:58:51.352Z,18.20
2022-10-15T02:01:18.418Z,19.30
2022-10-15T02:03:51.132Z,18.10
2022-10-15T02:06:44.548Z,14.10
2022-10-15T02:09:25.285Z,17.70
2022-10-15T02:12:04.526Z,14.70
2022-10-15T02:14:56.193Z,17.00
2022-10-15T02:17:34.873Z,17.10
2022-10-15T02:20:07.643Z,13.40
2022-10-15T02:22:38.266Z,8.20
2022-10-15T02:25:15.766Z,12.40
2022-10-15T02:27:47.925Z,12.80
2022-10-15T02:30:16.575Z,13.80
2022-10-15T02:32:47.600Z,14.00
2022-10-15T02:35:14.959Z,15.40
2022-10-15T02:37:47.641Z,11.70
2022-10-15T02:40:17.741Z,11.60
2022-10-15T02:42:44.767Z,13.20
2022-10-15T02:45:11.782Z,12.20
2022-10-15T02:47:39.673Z,12.90
2022-10-15T02:50:06.850Z,11.80
2022-10-15T02:52:33.840Z,11.00
2022-10-15T02:55:00.933Z,11.00
2022-10-15T02:57:27.949Z,7.00
2022-10-15T02:59:54.980Z,8.50
2022-10-15T03:02:22.091Z,8.80
2022-10-15T03:04:49.076Z,10.30
2022-10-15T03:07:16.167Z,11.80
2022-10-15T03:09:43.367Z,12.70
2022-10-15T03:12:10.533Z,10.10
2022-10-15T03:14:37.586Z,11.10
2022-10-15T03:17:04.850Z,10.80
2022-10-15T03:19:31.844Z,11.00
2022-10-15T03:21:58.883Z,13.60
2022-10-15T03:24:30.704Z,11.00
2022-10-15T03:26:58.033Z,13.40
2022-10-15T03:29:25.979Z,9.10
2022-10-15T03:31:58.214Z,9.10
2022-10-15T03:34:25.337Z,14.20
2022-10-15T03:36:52.388Z,12.30
2022-10-15T03:39:19.590Z,14.00
2022-10-15T03:41:46.623Z,10.80
2022-10-15T03:44:18.891Z,16.00
2022-10-15T03:49:33.871Z,14.90
2022-10-15T03:52:02.614Z,18.20
2022-10-15T03:54:29.855Z,27.10
2022-10-15T03:56:56.962Z,16.80
2022-10-15T03:59:36.102Z,13.20
2022-10-15T04:02:03.662Z,12.50
2022-10-15T04:04:31.296Z,11.20
2022-10-15T04:06:58.605Z,9.50
2022-10-15T04:09:26.121Z,14.90
2022-10-15T04:11:57.071Z,14.20
2022-10-15T04:14:24.220Z,15.50
2022-10-15T04:16:51.350Z,21.50
2022-10-15T04:19:21.169Z,16.80
2022-10-15T04:21:57.888Z,17.50
2022-10-15T04:24:30.906Z,14.60
2022-10-15T04:26:57.888Z,13.60
2022-10-15T04:29:25.192Z,13.70
2022-10-15T04:31:53.548Z,14.00
2022-10-15T04:34:20.549Z,13.10
2022-10-15T04:36:48.156Z,16.80
2022-10-15T04:39:19.884Z,12.80
2022-10-15T04:41:46.915Z,9.90
2022-10-15T04:44:17.399Z,11.50
2022-10-15T04:46:49.615Z,9.70
2022-10-15T04:49:35.176Z,9.40
2022-10-15T04:52:03.890Z,13.00
2022-10-15T04:54:37.382Z,10.10
2022-10-15T04:57:06.129Z,10.30
2022-10-15T04:59:33.332Z,11.70
2022-10-15T05:02:19.432Z,16.60
2022-10-15T05:04:50.542Z,16.70
2022-10-15T05:07:17.593Z,13.40
2022-10-15T05:09:46.613Z,11.90
2022-10-15T05:12:14.776Z,14.50
2022-10-15T05:14:42.160Z,11.00
2022-10-15T05:17:18.540Z,14.90
2022-10-15T05:19:45.587Z,16.90
2022-10-15T05:22:22.994Z,11.60
2022-10-15T05:24:53.108Z,16.10
2022-10-15T05:30:04.755Z,12.20
2022-10-15T05:32:57.757Z,16.20
2022-10-15T05:35:26.110Z,15.30
2022-10-15T05:37:55.294Z,12.80
2022-10-15T05:40:23.256Z,14.70
2022-10-15T05:43:25.863Z,38.80
2022-10-15T05:45:57.042Z,16.40
2022-10-15T05:48:24.546Z,14.80
2022-10-15T05:50:51.946Z,19.80
2022-10-15T05:53:23.608Z,12.50
2022-10-15T05:55:54.959Z,17.80
2022-10-15T05:58:23.573Z,14.50
2022-10-15T06:00:58.813Z,18.70
2022-10-15T06:03:26.890Z,13.70
2022-10-15T06:05:54.501Z,13.60
2022-10-15T06:08:23.108Z,13.70
2022-10-15T06:10:50.116Z,11.90
2022-10-15T06:13:17.656Z,16.50
2022-10-15T06:15:46.617Z,12.30
2022-10-15T06:18:16.284Z,15.50
2022-10-15T06:20:44.372Z,12.90
2022-10-15T06:23:12.230Z,15.00
2022-10-15T06:25:39.757Z,13.60
2022-10-15T06:28:07.431Z,10.80
2022-10-15T06:30:42.113Z,7.80
2022-10-15T06:35:42.148Z,11.00
2022-10-15T06:38:09.184Z,8.00
2022-10-15T06:40:38.908Z,9.70
2022-10-15T06:43:11.498Z,9.10
2022-10-15T06:45:42.083Z,11.60
2022-10-15T06:48:17.540Z,8.40
2022-10-15T06:50:44.787Z,10.70
2022-10-15T06:53:11.765Z,9.20
2022-10-15T06:55:39.699Z,17.40
2022-10-15T06:58:06.779Z,11.10
2022-10-15T07:03:07.420Z,5.60
2022-10-15T07:05:34.963Z,7.20
2022-10-15T07:08:02.145Z,10.80
2022-10-15T07:10:29.646Z,8.00
2022-10-15T07:13:00.895Z,5.80
2022-10-15T07:15:29.332Z,6.10
2022-10-15T07:17:57.989Z,8.50
2022-10-15T07:20:25.070Z,9.00
2022-10-15T07:23:00.475Z,6.90
2022-10-15T07:25:30.518Z,7.30
2022-10-15T07:27:58.053Z,5.70
2022-10-15T07:30:28.976Z,4.40
2022-10-15T07:33:00.009Z,5.60
2022-10-15T07:35:28.095Z,6.80
2022-10-15T07:37:55.480Z,5.30
2022-10-15T07:40:22.836Z,3.90
2022-10-15T07:42:54.564Z,5.70
2022-10-15T07:45:22.562Z,5.10
2022-10-15T07:47:50.122Z,6.70
2022-10-15T07:50:17.265Z,6.90
2022-10-15T07:52:45.261Z,5.70
2022-10-15T07:55:12.958Z,5.30
2022-10-15T07:57:40.352Z,5.20
2022-10-15T08:00:08.329Z,5.30
2022-10-15T08:02:39.798Z,8.50
2022-10-15T08:05:07.236Z,6.40
2022-10-15T08:07:34.207Z,5.80
2022-10-15T08:10:02.008Z,6.30
2022-10-15T08:12:29.049Z,5.10
2022-10-15T08:14:56.007Z,2.60
2022-10-15T08:17:22.987Z,5.20
2022-10-15T08:19:50.103Z,6.30
2022-10-15T08:22:17.137Z,5.10
2022-10-15T08:24:44.279Z,4.50
2022-10-15T08:27:11.290Z,6.10
2022-10-15T08:29:39.552Z,5.40
2022-10-15T08:32:06.620Z,7.40
2022-10-15T08:34:33.927Z,4.90
2022-10-15T08:37:02.921Z,6.90
2022-10-15T08:39:30.068Z,5.80
2022-10-15T08:42:04.000Z,5.40
2022-10-15T08:44:43.731Z,4.50
2022-10-15T08:47:36.910Z,4.30
2022-10-15T08:50:50.394Z,8.70
2022-10-15T08:53:23.538Z,4.20
2022-10-15T08:56:02.258Z,6.50
2022-10-15T08:58:47.776Z,3.60
2022-10-15T09:01:29.458Z,3.10
2022-10-15T09:04:19.847Z,9.00
2022-10-15T09:06:50.573Z,4.00
2022-10-15T09:09:49.603Z,6.00
2022-10-15T09:12:22.558Z,7.20
2022-10-15T09:14:50.409Z,6.60
2022-10-15T09:17:25.183Z,4.80
2022-10-15T09:19:58.126Z,3.70
2022-10-15T09:22:31.694Z,4.90
2022-10-15T09:24:58.774Z,4.90
2022-10-15T09:27:35.960Z,4.10
2022-10-15T09:30:06.282Z,3.40
2022-10-15T09:32:54.362Z,4.20
2022-10-15T09:35:49.733Z,7.60
2022-10-15T09:38:36.646Z,2.80
2022-10-15T09:41:16.900Z,3.10
2022-10-15T09:43:51.554Z,3.90
2022-10-15T09:46:19.803Z,3.60
2022-10-15T09:49:03.646Z,6.70
2022-10-15T09:51:45.716Z,4.70
2022-10-15T09:54:15.769Z,4.10
2022-10-15T09:56:52.493Z,3.60
2022-10-15T09:59:22.190Z,4.80
2022-10-15T10:02:03.239Z,3.00
2022-10-15T10:04:33.065Z,7.90
2022-10-15T10:07:07.629Z,5.50
2022-10-15T10:09:39.159Z,5.80
2022-10-15T10:12:09.014Z,4.00
2022-10-15T10:14:41.354Z,5.10
2022-10-15T10:17:21.242Z,9.40
2022-10-15T10:20:04.365Z,8.00
2022-10-15T10:22:50.400Z,8.60
2022-10-15T10:25:45.363Z,4.60
2022-10-15T10:28:12.308Z,10.40
2022-10-15T10:31:09.771Z,8.20
2022-10-15T10:33:39.785Z,3.80
2022-10-15T10:38:40.395Z,8.00
2022-10-15T10:41:10.177Z,6.20
2022-10-15T10:43:52.241Z,5.10
2022-10-15T10:46:20.884Z,8.60
2022-10-15T10:48:52.880Z,7.20
2022-10-15T10:51:25.528Z,6.40
2022-10-15T10:53:59.895Z,7.00
2022-10-15T10:56:41.002Z,6.40
2022-10-15T10:59:19.904Z,6.00
2022-10-15T11:01:50.336Z,5.60
2022-10-15T11:04:38.270Z,5.60
2022-10-15T11:07:48.290Z,4.50
2022-10-15T11:10:31.960Z,5.30
2022-10-15T11:13:30.365Z,2.50
2022-10-15T11:16:08.756Z,2.50
2022-10-15T11:19:18.630Z,5.60
2022-10-15T11:22:05.830Z,3.70
2022-10-15T11:25:07.161Z,6.90
2022-10-15T11:27:46.983Z,6.00
2022-10-15T11:30:32.401Z,5.70
2022-10-15T11:33:08.890Z,2.50
2022-10-15T11:35:54.392Z,4.90
2022-10-15T11:38:38.701Z,4.80
2022-10-15T11:41:16.020Z,4.10
2022-10-15T11:43:46.322Z,2.90
2022-10-15T11:46:25.853Z,3.70
2022-10-15T11:49:30.960Z,2.80
2022-10-15T11:52:33.784Z,4.40
2022-10-15T11:55:10.940Z,4.00
2022-10-15T11:57:40.481Z,3.20
2022-10-15T12:00:33.145Z,2.60
2022-10-15T12:03:12.387Z,3.20
2022-10-15T12:05:53.739Z,3.60
2022-10-15T12:08:22.934Z,3.90
2022-10-15T12:11:27.255Z,4.50
2022-10-15T12:14:12.878Z,6.90
2022-10-15T12:16:48.901Z,4.00
2022-10-15T12:19:24.600Z,3.40
2022-10-15T12:21:56.745Z,3.60
2022-10-15T12:24:44.762Z,4.30
2022-10-15T12:27:16.309Z,3.70
2022-10-15T12:29:43.353Z,3.30
2022-10-15T12:32:27.707Z,2.90
2022-10-15T12:35:01.204Z,3.50
2022-10-15T12:37:31.895Z,3.60
2022-10-15T12:40:03.731Z,3.60
2022-10-15T12:45:05.473Z,3.10
2022-10-15T12:48:17.576Z,6.00
2022-10-15T12:50:46.422Z,3.90
2022-10-15T12:56:10.905Z,4.70
2022-10-15T12:58:47.078Z,6.60
2022-10-15T13:01:14.176Z,5.30
2022-10-15T13:03:54.178Z,4.60
2022-10-15T13:06:21.328Z,4.10
2022-10-15T13:09:17.005Z,2.30
2022-10-15T13:11:49.068Z,2.60
2022-10-15T13:14:39.357Z,6.70
2022-10-15T13:17:21.087Z,4.60
2022-10-15T13:20:02.955Z,7.30
2022-10-15T13:22:31.585Z,4.30
2022-10-15T13:25:00.177Z,4.00
2022-10-15T13:27:33.385Z,6.30
2022-10-15T13:30:09.609Z,3.00
2022-10-15T13:32:44.453Z,4.80
2022-10-15T13:35:18.062Z,6.00
2022-10-15T13:37:47.073Z,3.80
2022-10-15T13:40:31.574Z,5.20
2022-10-15T13:43:06.481Z,8.40
2022-10-15T13:45:33.940Z,5.90
2022-10-15T13:48:01.301Z,7.00
2022-10-15T13:50:34.925Z,5.00
2022-10-15T13:53:07.395Z,3.60
2022-10-15T13:55:37.065Z,5.30
2022-10-15T13:58:17.274Z,6.10
2022-10-15T14:01:01.267Z,6.60
2022-10-15T14:03:32.691Z,3.70
2022-10-15T14:06:32.643Z,4.40
2022-10-15T14:09:27.366Z,2.70
2022-10-15T14:11:59.129Z,5.00
2022-10-15T14:14:37.064Z,3.20
2022-10-15T14:17:07.730Z,4.80
2022-10-15T14:19:38.549Z,3.60
2022-10-15T14:22:06.450Z,5.30
2022-10-15T14:24:39.128Z,5.10
2022-10-15T14:27:20.641Z,6.10
2022-10-15T14:29:50.618Z,5.60
2022-10-15T14:32:23.916Z,6.20
2022-10-15T14:34:53.719Z,5.30
2022-10-15T14:37:36.241Z,4.70
2022-10-15T14:40:08.420Z,4.40
2022-10-15T14:42:49.085Z,5.80
2022-10-15T14:45:19.197Z,4.10
2022-10-15T14:47:52.900Z,5.60
2022-10-15T14:50:20.967Z,7.80
2022-10-15T14:52:51.902Z,10.40
2022-10-15T14:55:38.436Z,6.30
2022-10-15T14:58:18.363Z,4.60
2022-10-15T15:00:49.526Z,4.50
2022-10-15T15:03:22.244Z,4.40
2022-10-15T15:05:53.018Z,7.40
2022-10-15T15:08:21.715Z,5.80
2022-10-15T15:10:51.535Z,6.70
2022-10-15T15:13:27.068Z,6.70
2022-10-15T15:15:55.001Z,5.60
2022-10-15T15:18:22.512Z,8.30
2022-10-15T15:20:51.521Z,6.60
2022-10-15T15:23:25.810Z,6.50
2022-10-15T15:25:54.489Z,11.30
2022-10-15T15:28:25.034Z,10.30
2022-10-15T15:31:05.682Z,9.30
2022-10-15T15:33:33.239Z,13.10
2022-10-15T15:36:12.480Z,8.90
2022-10-15T15:38:40.283Z,9.20
2022-10-15T15:41:20.803Z,12.80
2022-10-15T15:43:48.592Z,9.10
2022-10-15T15:46:16.026Z,12.00
2022-10-15T15:48:43.282Z,15.30
2022-10-15T15:51:28.352Z,10.80
2022-10-15T15:53:56.066Z,10.60
2022-10-15T15:56:23.435Z,10.80
2022-10-15T15:58:51.502Z,10.70
2022-10-15T16:01:19.994Z,12.30
2022-10-15T16:03:47.609Z,11.80
2022-10-15T16:06:14.633Z,9.40
2022-10-15T16:08:41.779Z,13.00
2022-10-15T16:11:08.939Z,11.70
2022-10-15T16:13:36.173Z,8.10
2022-10-15T16:16:03.640Z,9.40
2022-10-15T16:18:30.639Z,10.50
2022-10-15T16:20:57.791Z,8.60
2022-10-15T16:23:24.889Z,10.90
2022-10-15T16:25:52.544Z,8.20
2022-10-15T16:28:19.626Z,9.50
2022-10-15T16:30:46.747Z,14.00
2022-10-15T16:33:13.802Z,8.00
2022-10-15T16:35:41.252Z,11.70
2022-10-15T16:38:09.075Z,10.70
2022-10-15T16:40:36.158Z,11.40
2022-10-15T16:43:03.161Z,10.20
2022-10-15T16:45:30.194Z,9.50
2022-10-15T16:47:57.510Z,11.80
2022-10-15T16:50:24.762Z,12.30
2022-10-15T16:52:51.781Z,11.70
2022-10-15T16:55:18.955Z,12.40
2022-10-15T16:57:46.010Z,12.40
2022-10-15T17:00:13.580Z,10.00
2022-10-15T17:02:40.717Z,10.50
2022-10-15T17:05:08.445Z,11.30
2022-10-15T17:07:35.483Z,10.00
2022-10-15T17:10:02.726Z,13.00
2022-10-15T17:12:29.828Z,10.50
2022-10-15T17:14:56.876Z,12.90
2022-10-15T17:17:24.084Z,11.80
2022-10-15T17:19:51.336Z,10.10
2022-10-15T17:22:18.487Z,12.50
2022-10-15T17:24:45.474Z,12.60
2022-10-15T17:27:12.850Z,13.60
2022-10-15T17:29:39.898Z,12.50
2022-10-15T17:32:07.330Z,12.10
2022-10-15T17:34:34.684Z,14.60
2022-10-15T17:37:02.558Z,15.00
2022-10-15T17:39:29.573Z,16.50
2022-10-15T17:41:56.611Z,17.20
2022-10-15T17:44:23.704Z,15.10
2022-10-15T17:46:52.905Z,16.10
2022-10-15T17:49:26.422Z,18.50
2022-10-15T17:51:53.573Z,13.40
2022-10-15T17:54:20.653Z,16.60
2022-10-15T17:56:48.730Z,14.20
2022-10-15T17:59:15.934Z,14.20
2022-10-15T18:02:00.714Z,15.40
2022-10-15T18:04:31.300Z,21.00
2022-10-15T18:06:58.294Z,18.50
2022-10-15T18:09:27.023Z,18.50
2022-10-15T18:12:00.569Z,21.10
2022-10-15T18:14:29.252Z,23.10
2022-10-15T18:16:56.599Z,21.70
2022-10-15T18:19:25.847Z,18.70
2022-10-15T18:21:53.049Z,15.20
2022-10-15T18:24:22.133Z,18.20
2022-10-15T18:26:50.959Z,17.50
2022-10-15T18:29:18.773Z,15.30
2022-10-15T18:31:47.263Z,13.70
2022-10-15T18:34:14.737Z,12.40
2022-10-15T18:36:43.666Z,11.20
2022-10-15T18:39:11.765Z,14.40
2022-10-15T18:41:40.274Z,16.40
2022-10-15T18:44:14.903Z,15.80
2022-10-15T18:46:45.143Z,13.80
2022-10-15T18:49:15.020Z,15.20
2022-10-15T18:51:42.271Z,14.40
2022-10-15T18:54:11.020Z,14.40
2022-10-15T18:56:39.043Z,13.80
2022-10-15T18:59:06.181Z,16.20
2022-10-15T19:01:42.049Z,16.50
2022-10-15T19:04:12.405Z,13.80
2022-10-15T19:06:42.894Z,15.10
2022-10-15T19:09:14.138Z,19.80
2022-10-15T19:11:43.536Z,22.40
2022-10-15T19:14:11.401Z,25.70
2022-10-15T19:16:39.068Z,25.70
2022-10-15T19:19:13.072Z,24.80
2022-10-15T19:21:40.128Z,19.70
2022-10-15T19:24:07.078Z,17.80
2022-10-15T19:26:34.948Z,20.50
2022-10-15T19:29:02.728Z,15.30
2022-10-15T19:31:38.944Z,18.40
2022-10-15T19:34:06.634Z,15.70
2022-10-15T19:36:42.984Z,19.90
2022-10-15T19:39:15.722Z,17.20
2022-10-15T19:41:44.584Z,16.90
2022-10-15T19:44:14.020Z,19.60
2022-10-15T19:46:41.154Z,17.60
2022-10-15T19:49:11.222Z,17.00
2022-10-15T19:51:38.445Z,16.00
2022-10-15T19:54:05.440Z,18.60
2022-10-15T19:56:33.168Z,18.00
2022-10-15T19:59:03.129Z,15.20
2022-10-15T20:01:30.701Z,17.40
2022-10-15T20:04:03.204Z,16.00
2022-10-15T20:06:33.781Z,13.50
2022-10-15T20:11:45.690Z,20.80
2022-10-15T20:14:13.121Z,21.50
2022-10-15T20:16:40.116Z,17.30
2022-10-15T20:19:07.247Z,19.20
2022-10-15T20:21:34.259Z,13.10
2022-10-15T20:24:04.957Z,19.50
2022-10-15T20:26:33.121Z,17.20
2022-10-15T20:29:00.285Z,17.00
2022-10-15T20:31:32.249Z,15.50
2022-10-15T20:36:27.436Z,11.80
2022-10-15T20:38:57.530Z,15.70
2022-10-15T20:41:24.599Z,18.20
2022-10-15T20:43:55.014Z,16.00
2022-10-15T20:46:31.673Z,15.70
2022-10-15T20:49:07.603Z,11.80
2022-10-15T20:51:37.066Z,14.80
2022-10-15T20:54:04.228Z,17.30
2022-10-15T20:56:31.503Z,12.80
2022-10-15T20:58:58.552Z,12.90
2022-10-15T21:01:25.725Z,14.30
2022-10-15T21:03:52.761Z,16.30
2022-10-15T21:06:20.782Z,12.10
2022-10-15T21:08:47.896Z,11.10
2022-10-15T21:11:15.291Z,17.00
2022-10-15T21:13:42.293Z,11.80
2022-10-15T21:16:09.725Z,13.40
2022-10-15T21:18:37.673Z,15.70
2022-10-15T21:21:07.971Z,12.70
2022-10-15T21:23:36.047Z,14.70
2022-10-15T21:26:15.980Z,13.50
2022-10-15T21:28:44.109Z,13.50
2022-10-15T21:31:13.523Z,10.80
2022-10-15T21:33:41.708Z,11.80
2022-10-15T21:36:22.195Z,15.00
2022-10-15T21:39:02.608Z,12.30
2022-10-15T21:41:31.998Z,12.20
2022-10-15T21:44:00.533Z,13.10
2022-10-15T21:46:28.149Z,12.80
2022-10-15T21:48:55.168Z,13.10
2022-10-15T21:51:25.452Z,11.60
2022-10-15T21:53:53.934Z,12.00
2022-10-15T21:56:21.946Z,12.30
2022-10-15T21:58:49.570Z,13.40
2022-10-15T22:01:19.828Z,13.00
2022-10-15T22:03:48.113Z,15.70
2022-10-15T22:06:15.988Z,15.20
2022-10-15T22:08:43.983Z,11.60
2022-10-15T22:14:00.344Z,12.20
2022-10-15T22:16:28.630Z,15.70
2022-10-15T22:18:57.099Z,16.20
2022-10-15T22:21:27.335Z,13.70
2022-10-15T22:23:58.431Z,11.60
2022-10-15T22:26:28.507Z,12.50
2022-10-15T22:28:57.649Z,16.90
2022-10-15T22:31:25.517Z,12.20
2022-10-15T22:33:53.604Z,14.90
2022-10-15T22:36:26.756Z,14.20
2022-10-15T22:38:57.269Z,9.80
2022-10-15T22:41:24.818Z,16.20
2022-10-15T22:43:51.976Z,16.10
2022-10-15T22:46:18.997Z,13.50
2022-10-15T22:48:46.248Z,10.70
2022-10-15T22:51:14.117Z,11.80
2022-10-15T22:53:41.821Z,12.40
2022-10-15T22:56:15.428Z,14.20
2022-10-15T22:58:43.258Z,11.70
2022-10-15T23:01:40.119Z,9.30
2022-10-15T23:04:08.445Z,8.40
2022-10-15T23:06:37.162Z,8.90
2022-10-15T23:09:06.430Z,10.20
2022-10-15T23:11:40.277Z,8.40
2022-10-15T23:14:13.425Z,9.10
2022-10-15T23:16:43.165Z,10.70
2022-10-15T23:19:16.941Z,8.80
2022-10-15T23:21:51.264Z,10.00
2022-10-15T23:24:20.900Z,16.10
2022-10-15T23:26:48.195Z,17.70
2022-10-15T23:29:18.279Z,18.40
2022-10-15T23:31:46.206Z,14.10
2022-10-15T23:34:15.762Z,15.60
2022-10-15T23:36:43.407Z,15.00
2022-10-15T23:39:19.619Z,14.40
2022-10-15T23:41:47.556Z,15.10
2022-10-15T23:44:14.676Z,18.10
2022-10-15T23:46:41.943Z,16.60
2022-10-15T23:49:09.387Z,16.40
2022-10-15T23:51:37.212Z,16.40
2022-10-15T23:54:12.983Z,16.70
2022-10-15T23:56:40.053Z,15.00
2022-10-15T23:59:07.038Z,14.50
